sensor_id;sensor_type;location;lat;lon;timestamp;pressure;altitude;pressure_sealevel;temperature;humidity
34237;BME280;20501;45.956;13.632;2022-09-02T00:00:44;100674.47;;;18.75;63.94
34237;BME280;20501;45.956;13.632;2022-09-02T00:03:11;100668.47;;;20.23;64.33
34237;BME280;20501;45.956;13.632;2022-09-02T00:05:36;100664.03;;;20.64;62.13
34237;BME280;20501;45.956;13.632;2022-09-02T00:08:03;100658.25;;;18.74;64.07
34237;BME280;20501;45.956;13.632;2022-09-02T00:10:29;100661.56;;;19.49;63.75
34237;BME280;20501;45.956;13.632;2022-09-02T00:12:54;100657.84;;;20.07;64.53
34237;BME280;20501;45.956;13.632;2022-09-02T00:15:20;100658.53;;;19.37;64.24
34237;BME280;20501;45.956;13.632;2022-09-02T00:17:45;100661.94;;;20.24;63.74
34237;BME280;20501;45.956;13.632;2022-09-02T00:20:11;100655.53;;;20.10;62.16
34237;BME280;20501;45.956;13.632;2022-09-02T00:22:36;100655.06;;;20.42;63.38
34237;BME280;20501;45.956;13.632;2022-09-02T00:25:02;100662.41;;;19.49;59.58
34237;BME280;20501;45.956;13.632;2022-09-02T00:27:28;100661.41;;;18.25;66.00
34237;BME280;20501;45.956;13.632;2022-09-02T00:29:53;100654.19;;;18.69;62.37
34237;BME280;20501;45.956;13.632;2022-09-02T00:32:19;100665.66;;;18.28;62.94
34237;BME280;20501;45.956;13.632;2022-09-02T00:34:44;100659.88;;;18.53;68.94
34237;BME280;20501;45.956;13.632;2022-09-02T00:37:10;100656.19;;;19.12;66.82
34237;BME280;20501;45.956;13.632;2022-09-02T00:39:37;100655.59;;;19.17;67.24
34237;BME280;20501;45.956;13.632;2022-09-02T00:42:03;100658.59;;;19.72;64.69
34237;BME280;20501;45.956;13.632;2022-09-02T00:44:28;100657.75;;;19.72;59.99
34237;BME280;20501;45.956;13.632;2022-09-02T00:46:54;100663.00;;;19.45;60.00
34237;BME280;20501;45.956;13.632;2022-09-02T00:49:25;100656.63;;;19.38;65.89
34237;BME280;20501;45.956;13.632;2022-09-02T00:51:53;100654.81;;;19.73;64.42
34237;BME280;20501;45.956;13.632;2022-09-02T00:54:20;100656.53;;;19.53;65.82
34237;BME280;20501;45.956;13.632;2022-09-02T00:56:48;100648.63;;;19.86;63.60
34237;BME280;20501;45.956;13.632;2022-09-02T00:59:45;100647.72;;;20.07;59.69
34237;BME280;20501;45.956;13.632;2022-09-02T01:02:07;100652.81;;;19.60;65.37
34237;BME280;20501;45.956;13.632;2022-09-02T01:04:33;100653.63;;;19.54;60.59
34237;BME280;20501;45.956;13.632;2022-09-02T01:06:59;100648.00;;;18.61;68.38
34237;BME280;20501;45.956;13.632;2022-09-02T01:09:24;100654.16;;;19.43;65.54
34237;BME280;20501;45.956;13.632;2022-09-02T01:11:50;100648.56;;;20.08;63.14
34237;BME280;20501;45.956;13.632;2022-09-02T01:14:19;100646.00;;;19.78;62.84
34237;BME280;20501;45.956;13.632;2022-09-02T01:16:48;100643.66;;;19.97;59.36
34237;BME280;20501;45.956;13.632;2022-09-02T01:19:27;100640.69;;;19.48;59.51
34237;BME280;20501;45.956;13.632;2022-09-02T01:21:55;100640.25;;;19.94;63.72
34237;BME280;20501;45.956;13.632;2022-09-02T01:24:24;100636.91;;;19.99;62.30
34237;BME280;20501;45.956;13.632;2022-09-02T01:26:52;100642.75;;;19.68;61.28
34237;BME280;20501;45.956;13.632;2022-09-02T01:29:18;100637.09;;;18.82;60.23
34237;BME280;20501;45.956;13.632;2022-09-02T01:31:44;100641.28;;;18.63;62.07
34237;BME280;20501;45.956;13.632;2022-09-02T01:34:09;100634.19;;;18.69;59.72
34237;BME280;20501;45.956;13.632;2022-09-02T01:36:40;100641.06;;;19.16;61.15
34237;BME280;20501;45.956;13.632;2022-09-02T01:39:07;100640.16;;;19.59;63.00
34237;BME280;20501;45.956;13.632;2022-09-02T01:41:33;100640.19;;;19.16;55.80
34237;BME280;20501;45.956;13.632;2022-09-02T01:43:58;100635.66;;;19.52;62.91
34237;BME280;20501;45.956;13.632;2022-09-02T01:46:23;100627.72;;;19.85;62.51
34237;BME280;20501;45.956;13.632;2022-09-02T01:48:49;100629.75;;;19.48;54.63
34237;BME280;20501;45.956;13.632;2022-09-02T01:51:17;100631.19;;;19.72;61.83
34237;BME280;20501;45.956;13.632;2022-09-02T01:53:43;100626.53;;;19.66;61.86
34237;BME280;20501;45.956;13.632;2022-09-02T01:56:09;100620.50;;;19.27;55.27
34237;BME280;20501;45.956;13.632;2022-09-02T01:58:34;100623.56;;;19.68;59.14
34237;BME280;20501;45.956;13.632;2022-09-02T02:01:00;100611.19;;;18.63;57.20
34237;BME280;20501;45.956;13.632;2022-09-02T02:03:26;100626.44;;;19.09;57.79
34237;BME280;20501;45.956;13.632;2022-09-02T02:05:51;100617.31;;;19.02;54.80
34237;BME280;20501;45.956;13.632;2022-09-02T02:08:17;100621.69;;;19.18;55.51
34237;BME280;20501;45.956;13.632;2022-09-02T02:10:42;100623.16;;;19.42;62.09
34237;BME280;20501;45.956;13.632;2022-09-02T02:13:08;100612.81;;;19.66;55.75
34237;BME280;20501;45.956;13.632;2022-09-02T02:15:37;100624.63;;;19.67;61.50
34237;BME280;20501;45.956;13.632;2022-09-02T02:18:02;100622.63;;;18.88;55.83
34237;BME280;20501;45.956;13.632;2022-09-02T02:20:28;100621.47;;;18.98;56.19
34237;BME280;20501;45.956;13.632;2022-09-02T02:22:53;100618.81;;;19.26;63.33
34237;BME280;20501;45.956;13.632;2022-09-02T02:25:19;100621.63;;;20.18;61.08
34237;BME280;20501;45.956;13.632;2022-09-02T02:27:45;100622.22;;;19.28;54.66
34237;BME280;20501;45.956;13.632;2022-09-02T02:30:13;100628.47;;;19.00;56.13
34237;BME280;20501;45.956;13.632;2022-09-02T02:32:38;100627.91;;;17.93;59.12
34237;BME280;20501;45.956;13.632;2022-09-02T02:35:04;100628.44;;;18.79;63.06
34237;BME280;20501;45.956;13.632;2022-09-02T02:37:30;100631.88;;;20.03;61.22
34237;BME280;20501;45.956;13.632;2022-09-02T02:39:55;100626.31;;;18.96;60.41
34237;BME280;20501;45.956;13.632;2022-09-02T02:42:22;100624.31;;;19.55;61.67
34237;BME280;20501;45.956;13.632;2022-09-02T02:44:47;100623.41;;;19.98;59.18
34237;BME280;20501;45.956;13.632;2022-09-02T02:47:13;100622.91;;;19.65;54.38
34237;BME280;20501;45.956;13.632;2022-09-02T02:49:40;100612.97;;;20.21;60.72
34237;BME280;20501;45.956;13.632;2022-09-02T02:52:07;100619.75;;;19.90;54.63
34237;BME280;20501;45.956;13.632;2022-09-02T02:54:33;100621.94;;;20.44;60.59
34237;BME280;20501;45.956;13.632;2022-09-02T02:56:59;100615.94;;;19.34;58.61
34237;BME280;20501;45.956;13.632;2022-09-02T02:59:24;100621.28;;;20.35;60.72
34237;BME280;20501;45.956;13.632;2022-09-02T03:01:51;100615.06;;;19.56;57.71
34237;BME280;20501;45.956;13.632;2022-09-02T03:04:16;100620.56;;;20.19;61.16
34237;BME280;20501;45.956;13.632;2022-09-02T03:06:42;100611.50;;;19.33;54.68
34237;BME280;20501;45.956;13.632;2022-09-02T03:09:08;100613.47;;;19.68;62.62
34237;BME280;20501;45.956;13.632;2022-09-02T03:11:33;100613.47;;;18.60;59.05
34237;BME280;20501;45.956;13.632;2022-09-02T03:13:58;100629.38;;;19.08;64.40
34237;BME280;20501;45.956;13.632;2022-09-02T03:16:24;100623.56;;;19.68;62.30
34237;BME280;20501;45.956;13.632;2022-09-02T03:18:50;100629.81;;;19.83;62.08
34237;BME280;20501;45.956;13.632;2022-09-02T03:21:16;100624.50;;;19.75;62.44
34237;BME280;20501;45.956;13.632;2022-09-02T03:23:43;100622.28;;;19.63;57.26
34237;BME280;20501;45.956;13.632;2022-09-02T03:26:15;100612.91;;;19.79;54.52
34237;BME280;20501;45.956;13.632;2022-09-02T03:28:41;100620.41;;;19.92;62.00
34237;BME280;20501;45.956;13.632;2022-09-02T03:31:07;100622.94;;;19.94;61.76
34237;BME280;20501;45.956;13.632;2022-09-02T03:33:43;100618.28;;;19.88;60.98
34237;BME280;20501;45.956;13.632;2022-09-02T03:36:28;100621.03;;;20.23;58.36
34237;BME280;20501;45.956;13.632;2022-09-02T03:38:55;100620.38;;;20.21;60.76
34237;BME280;20501;45.956;13.632;2022-09-02T03:41:21;100609.03;;;19.17;61.73
34237;BME280;20501;45.956;13.632;2022-09-02T03:43:47;100615.63;;;19.01;64.34
34237;BME280;20501;45.956;13.632;2022-09-02T03:46:12;100605.41;;;19.88;62.32
34237;BME280;20501;45.956;13.632;2022-09-02T03:48:39;100609.97;;;19.53;54.44
34237;BME280;20501;45.956;13.632;2022-09-02T03:51:05;100614.63;;;19.52;63.32
34237;BME280;20501;45.956;13.632;2022-09-02T03:53:30;100607.91;;;20.18;60.63
34237;BME280;20501;45.956;13.632;2022-09-02T03:55:56;100607.09;;;17.92;59.25
34237;BME280;20501;45.956;13.632;2022-09-02T03:58:21;100604.63;;;18.43;62.58
34237;BME280;20501;45.956;13.632;2022-09-02T04:00:54;100608.81;;;19.40;63.56
34237;BME280;20501;45.956;13.632;2022-09-02T04:03:19;100600.81;;;19.95;61.55
34237;BME280;20501;45.956;13.632;2022-09-02T04:05:49;100598.44;;;19.36;55.46
34237;BME280;20501;45.956;13.632;2022-09-02T04:08:16;100603.06;;;19.85;57.04
34237;BME280;20501;45.956;13.632;2022-09-02T04:10:42;100609.84;;;19.39;55.45
34237;BME280;20501;45.956;13.632;2022-09-02T04:13:07;100603.34;;;19.40;63.79
34237;BME280;20501;45.956;13.632;2022-09-02T04:15:32;100607.22;;;17.99;66.34
34237;BME280;20501;45.956;13.632;2022-09-02T04:17:58;100607.22;;;17.99;59.21
34237;BME280;20501;45.956;13.632;2022-09-02T04:20:23;100598.34;;;18.64;58.99
34237;BME280;20501;45.956;13.632;2022-09-02T04:22:49;100596.19;;;18.59;62.76
34237;BME280;20501;45.956;13.632;2022-09-02T04:25:14;100605.97;;;18.68;61.89
34237;BME280;20501;45.956;13.632;2022-09-02T04:27:40;100596.25;;;19.24;62.73
34237;BME280;20501;45.956;13.632;2022-09-02T04:30:07;100593.13;;;19.27;63.20
34237;BME280;20501;45.956;13.632;2022-09-02T04:32:33;100589.38;;;19.57;62.28
34237;BME280;20501;45.956;13.632;2022-09-02T04:34:59;100588.84;;;18.60;57.16
34237;BME280;20501;45.956;13.632;2022-09-02T04:37:25;100592.66;;;18.44;63.86
34237;BME280;20501;45.956;13.632;2022-09-02T04:39:51;100597.06;;;18.96;64.34
34237;BME280;20501;45.956;13.632;2022-09-02T04:42:17;100606.00;;;19.33;59.44
34237;BME280;20501;45.956;13.632;2022-09-02T04:44:42;100599.91;;;18.36;64.72
34237;BME280;20501;45.956;13.632;2022-09-02T04:47:07;100607.00;;;19.83;61.22
34237;BME280;20501;45.956;13.632;2022-09-02T04:49:33;100609.41;;;20.21;60.16
34237;BME280;20501;45.956;13.632;2022-09-02T04:51:59;100613.38;;;19.83;60.44
34237;BME280;20501;45.956;13.632;2022-09-02T04:54:25;100603.41;;;19.75;59.03
34237;BME280;20501;45.956;13.632;2022-09-02T04:56:50;100615.63;;;19.23;63.24
34237;BME280;20501;45.956;13.632;2022-09-02T04:59:16;100607.69;;;18.91;57.40
34237;BME280;20501;45.956;13.632;2022-09-02T05:01:42;100605.06;;;18.61;63.71
34237;BME280;20501;45.956;13.632;2022-09-02T05:04:08;100600.53;;;18.90;56.93
34237;BME280;20501;45.956;13.632;2022-09-02T05:06:35;100595.88;;;18.69;62.89
34237;BME280;20501;45.956;13.632;2022-09-02T05:09:01;100592.38;;;17.78;62.23
34237;BME280;20501;45.956;13.632;2022-09-02T05:11:29;100594.91;;;18.55;62.44
34237;BME280;20501;45.956;13.632;2022-09-02T05:13:58;100600.34;;;18.18;59.64
34237;BME280;20501;45.956;13.632;2022-09-02T05:16:29;100605.44;;;19.38;62.46
34237;BME280;20501;45.956;13.632;2022-09-02T05:18:56;100605.19;;;19.61;61.72
34237;BME280;20501;45.956;13.632;2022-09-02T05:21:22;100603.66;;;19.52;62.41
34237;BME280;20501;45.956;13.632;2022-09-02T05:23:49;100601.78;;;19.31;60.38
34237;BME280;20501;45.956;13.632;2022-09-02T05:26:15;100597.59;;;18.33;60.35
34237;BME280;20501;45.956;13.632;2022-09-02T05:28:42;100611.31;;;19.35;61.73
34237;BME280;20501;45.956;13.632;2022-09-02T05:31:10;100605.84;;;19.13;58.71
34237;BME280;20501;45.956;13.632;2022-09-02T05:33:38;100603.84;;;18.49;60.67
34237;BME280;20501;45.956;13.632;2022-09-02T05:36:11;100609.78;;;19.54;61.37
34237;BME280;20501;45.956;13.632;2022-09-02T05:38:40;100609.47;;;19.42;57.47
34237;BME280;20501;45.956;13.632;2022-09-02T05:41:07;100608.81;;;19.40;57.96
34237;BME280;20501;45.956;13.632;2022-09-02T05:43:37;100612.06;;;19.79;61.20
34237;BME280;20501;45.956;13.632;2022-09-02T05:46:07;100608.13;;;20.23;60.01
34237;BME280;20501;45.956;13.632;2022-09-02T05:48:34;100612.66;;;20.38;59.69
34237;BME280;20501;45.956;13.632;2022-09-02T05:51:18;100612.72;;;20.51;59.13
34237;BME280;20501;45.956;13.632;2022-09-02T05:53:44;100606.25;;;19.89;58.93
34237;BME280;20501;45.956;13.632;2022-09-02T05:56:09;100609.13;;;19.80;59.43
34237;BME280;20501;45.956;13.632;2022-09-02T05:58:35;100614.56;;;19.45;59.16
34237;BME280;20501;45.956;13.632;2022-09-02T06:01:09;100610.13;;;19.73;60.82
34237;BME280;20501;45.956;13.632;2022-09-02T06:03:35;100614.19;;;19.84;61.00
34237;BME280;20501;45.956;13.632;2022-09-02T06:06:00;100609.22;;;19.65;55.86
34237;BME280;20501;45.956;13.632;2022-09-02T06:08:26;100610.06;;;19.38;58.30
34237;BME280;20501;45.956;13.632;2022-09-02T06:10:52;100602.69;;;19.67;59.29
34237;BME280;20501;45.956;13.632;2022-09-02T06:13:17;100603.72;;;19.65;57.39
34237;BME280;20501;45.956;13.632;2022-09-02T06:15:49;100604.00;;;19.71;58.54
34237;BME280;20501;45.956;13.632;2022-09-02T06:18:16;100606.19;;;20.10;59.85
34237;BME280;20501;45.956;13.632;2022-09-02T06:20:43;100607.44;;;20.08;55.99
34237;BME280;20501;45.956;13.632;2022-09-02T06:23:10;100596.88;;;19.76;54.39
34237;BME280;20501;45.956;13.632;2022-09-02T06:25:37;100602.56;;;19.75;55.84
34237;BME280;20501;45.956;13.632;2022-09-02T06:28:02;100603.19;;;20.05;56.14
34237;BME280;20501;45.956;13.632;2022-09-02T06:30:28;100603.25;;;19.55;52.81
34237;BME280;20501;45.956;13.632;2022-09-02T06:32:53;100597.91;;;19.75;60.13
34237;BME280;20501;45.956;13.632;2022-09-02T06:35:21;100594.81;;;20.20;58.24
34237;BME280;20501;45.956;13.632;2022-09-02T06:37:46;100597.03;;;19.97;50.40
34237;BME280;20501;45.956;13.632;2022-09-02T06:40:12;100589.88;;;19.95;57.70
34237;BME280;20501;45.956;13.632;2022-09-02T06:42:38;100597.88;;;19.97;57.76
34237;BME280;20501;45.956;13.632;2022-09-02T06:45:04;100605.06;;;20.40;58.53
34237;BME280;20501;45.956;13.632;2022-09-02T06:47:29;100592.56;;;19.89;50.73
34237;BME280;20501;45.956;13.632;2022-09-02T06:49:56;100599.31;;;19.86;52.08
34237;BME280;20501;45.956;13.632;2022-09-02T06:52:21;100596.47;;;20.08;58.34
34237;BME280;20501;45.956;13.632;2022-09-02T06:54:47;100597.75;;;20.12;51.97
34237;BME280;20501;45.956;13.632;2022-09-02T06:57:13;100592.66;;;20.09;53.31
34237;BME280;20501;45.956;13.632;2022-09-02T06:59:39;100592.31;;;20.25;56.16
34237;BME280;20501;45.956;13.632;2022-09-02T07:02:04;100604.25;;;20.53;52.41
34237;BME280;20501;45.956;13.632;2022-09-02T07:04:30;100593.69;;;20.50;48.78
34237;BME280;20501;45.956;13.632;2022-09-02T07:07:14;100600.84;;;20.44;49.22
34237;BME280;20501;45.956;13.632;2022-09-02T07:09:39;100599.50;;;20.75;56.59
34237;BME280;20501;45.956;13.632;2022-09-02T07:12:05;100596.75;;;20.75;48.46
34237;BME280;20501;45.956;13.632;2022-09-02T07:14:35;100592.66;;;20.57;46.87
34237;BME280;20501;45.956;13.632;2022-09-02T07:17:00;100603.75;;;20.78;52.49
34237;BME280;20501;45.956;13.632;2022-09-02T07:19:26;100594.25;;;20.80;45.11
34237;BME280;20501;45.956;13.632;2022-09-02T07:21:51;100598.25;;;20.84;44.77
34237;BME280;20501;45.956;13.632;2022-09-02T07:24:18;100597.84;;;20.87;44.27
34237;BME280;20501;45.956;13.632;2022-09-02T07:26:44;100596.78;;;20.88;45.25
34237;BME280;20501;45.956;13.632;2022-09-02T07:29:10;100597.25;;;21.06;44.77
34237;BME280;20501;45.956;13.632;2022-09-02T07:31:37;100595.31;;;20.86;45.92
34237;BME280;20501;45.956;13.632;2022-09-02T07:34:03;100598.53;;;21.10;52.43
34237;BME280;20501;45.956;13.632;2022-09-02T07:36:30;100595.16;;;21.14;48.42
34237;BME280;20501;45.956;13.632;2022-09-02T07:38:55;100599.78;;;21.21;46.56
34237;BME280;20501;45.956;13.632;2022-09-02T07:41:22;100604.00;;;21.30;49.04
34237;BME280;20501;45.956;13.632;2022-09-02T07:43:48;100597.06;;;21.34;48.93
34237;BME280;20501;45.956;13.632;2022-09-02T07:46:14;100600.00;;;21.26;43.55
34237;BME280;20501;45.956;13.632;2022-09-02T07:48:40;100601.69;;;21.40;45.89
34237;BME280;20501;45.956;13.632;2022-09-02T07:51:06;100608.06;;;21.61;45.02
34237;BME280;20501;45.956;13.632;2022-09-02T07:53:33;100602.34;;;21.62;42.77
34237;BME280;20501;45.956;13.632;2022-09-02T07:55:59;100611.84;;;21.73;41.60
34237;BME280;20501;45.956;13.632;2022-09-02T07:58:26;100611.19;;;21.85;41.18
34237;BME280;20501;45.956;13.632;2022-09-02T08:00:52;100606.97;;;21.82;41.85
34237;BME280;20501;45.956;13.632;2022-09-02T08:03:20;100603.38;;;21.82;43.84
34237;BME280;20501;45.956;13.632;2022-09-02T08:05:46;100608.84;;;21.88;41.89
34237;BME280;20501;45.956;13.632;2022-09-02T08:08:13;100611.41;;;21.97;42.77
34237;BME280;20501;45.956;13.632;2022-09-02T08:10:39;100617.09;;;22.02;41.03
34237;BME280;20501;45.956;13.632;2022-09-02T08:13:05;100615.22;;;21.89;38.91
34237;BME280;20501;45.956;13.632;2022-09-02T08:15:32;100616.94;;;21.76;42.41
34237;BME280;20501;45.956;13.632;2022-09-02T08:17:58;100613.06;;;22.04;42.11
34237;BME280;20501;45.956;13.632;2022-09-02T08:20:24;100605.66;;;22.11;40.93
34237;BME280;20501;45.956;13.632;2022-09-02T08:22:49;100608.19;;;22.06;40.60
34237;BME280;20501;45.956;13.632;2022-09-02T08:25:15;100610.13;;;21.99;41.86
34237;BME280;20501;45.956;13.632;2022-09-02T08:27:42;100608.59;;;22.10;40.57
34237;BME280;20501;45.956;13.632;2022-09-02T08:30:09;100604.78;;;22.11;40.97
34237;BME280;20501;45.956;13.632;2022-09-02T08:32:35;100606.31;;;22.07;40.41
34237;BME280;20501;45.956;13.632;2022-09-02T08:35:01;100605.66;;;22.05;40.96
34237;BME280;20501;45.956;13.632;2022-09-02T08:37:29;100596.34;;;22.06;41.59
34237;BME280;20501;45.956;13.632;2022-09-02T08:39:55;100605.66;;;22.11;41.05
34237;BME280;20501;45.956;13.632;2022-09-02T08:42:23;100596.63;;;22.50;41.00
34237;BME280;20501;45.956;13.632;2022-09-02T08:44:58;100603.22;;;22.35;40.83
34237;BME280;20501;45.956;13.632;2022-09-02T08:47:29;100598.81;;;22.34;40.09
34237;BME280;20501;45.956;13.632;2022-09-02T08:50:05;100599.03;;;22.26;40.85
34237;BME280;20501;45.956;13.632;2022-09-02T08:52:42;100591.03;;;22.11;40.93
34237;BME280;20501;45.956;13.632;2022-09-02T08:55:17;100595.72;;;21.97;44.70
34237;BME280;20501;45.956;13.632;2022-09-02T08:57:44;100593.38;;;22.01;41.23
34237;BME280;20501;45.956;13.632;2022-09-02T09:00:11;100594.91;;;21.97;40.95
34237;BME280;20501;45.956;13.632;2022-09-02T09:05:27;100592.72;;;22.12;41.35
34237;BME280;20501;45.956;13.632;2022-09-02T09:17:57;100586.28;;;22.38;41.47
34237;BME280;20501;45.956;13.632;2022-09-02T09:20:29;100579.47;;;22.48;41.33
34237;BME280;20501;45.956;13.632;2022-09-02T09:22:57;100572.75;;;22.44;40.31
34237;BME280;20501;45.956;13.632;2022-09-02T09:25:24;100571.88;;;22.43;40.78
34237;BME280;20501;45.956;13.632;2022-09-02T09:27:57;100575.69;;;22.35;41.67
34237;BME280;20501;45.956;13.632;2022-09-02T09:30:24;100569.13;;;22.43;44.01
34237;BME280;20501;45.956;13.632;2022-09-02T09:32:52;100567.97;;;22.64;40.30
34237;BME280;20501;45.956;13.632;2022-09-02T09:35:22;100564.16;;;22.65;40.38
34237;BME280;20501;45.956;13.632;2022-09-02T09:37:49;100562.47;;;22.64;41.98
34237;BME280;20501;45.956;13.632;2022-09-02T09:50:41;100553.91;;;22.34;43.54
34237;BME280;20501;45.956;13.632;2022-09-02T09:55:54;100542.69;;;22.74;41.96
34237;BME280;20501;45.956;13.632;2022-09-02T09:58:21;100541.44;;;22.77;42.86
34237;BME280;20501;45.956;13.632;2022-09-02T10:00:47;100540.44;;;22.64;42.58
34237;BME280;20501;45.956;13.632;2022-09-02T10:03:22;100538.91;;;22.68;41.34
34237;BME280;20501;45.956;13.632;2022-09-02T10:05:56;100538.00;;;22.81;41.70
34237;BME280;20501;45.956;13.632;2022-09-02T10:08:25;100533.03;;;22.65;44.87
34237;BME280;20501;45.956;13.632;2022-09-02T10:13:22;100522.34;;;23.32;39.05
34237;BME280;20501;45.956;13.632;2022-09-02T10:16:01;100529.00;;;23.25;41.08
34237;BME280;20501;45.956;13.632;2022-09-02T10:26:48;100511.63;;;23.24;39.10
34237;BME280;20501;45.956;13.632;2022-09-02T10:29:33;100513.38;;;23.12;39.70
34237;BME280;20501;45.956;13.632;2022-09-02T10:32:48;100501.69;;;23.16;39.82
34237;BME280;20501;45.956;13.632;2022-09-02T10:35:24;100500.16;;;23.27;40.37
34237;BME280;20501;45.956;13.632;2022-09-02T10:38:24;100505.16;;;23.37;39.35
34237;BME280;20501;45.956;13.632;2022-09-02T10:46:49;100499.41;;;23.76;38.60
34237;BME280;20501;45.956;13.632;2022-09-02T10:58:02;100499.41;;;23.76;38.40
34237;BME280;20501;45.956;13.632;2022-09-02T11:00:31;100488.94;;;23.85;39.07
34237;BME280;20501;45.956;13.632;2022-09-02T11:03:13;100490.63;;;23.86;38.40
34237;BME280;20501;45.956;13.632;2022-09-02T11:06:03;100486.41;;;23.83;38.74
34237;BME280;20501;45.956;13.632;2022-09-02T11:08:48;100481.72;;;24.21;38.01
34237;BME280;20501;45.956;13.632;2022-09-02T11:11:21;100488.59;;;24.30;37.90
34237;BME280;20501;45.956;13.632;2022-09-02T11:14:01;100478.06;;;23.90;37.23
34237;BME280;20501;45.956;13.632;2022-09-02T11:16:42;100482.28;;;23.74;39.75
34237;BME280;20501;45.956;13.632;2022-09-02T11:19:21;100475.47;;;23.58;40.69
34237;BME280;20501;45.956;13.632;2022-09-02T11:25:04;100475.88;;;23.92;40.03
34237;BME280;20501;45.956;13.632;2022-09-02T11:30:42;100476.41;;;24.19;37.05
34237;BME280;20501;45.956;13.632;2022-09-02T11:33:29;100485.19;;;24.16;37.68
34237;BME280;20501;45.956;13.632;2022-09-02T11:35:57;100474.47;;;24.08;37.36
34237;BME280;20501;45.956;13.632;2022-09-02T11:38:33;100490.25;;;24.01;38.62
34237;BME280;20501;45.956;13.632;2022-09-02T11:43:47;100478.44;;;24.12;38.09
34237;BME280;20501;45.956;13.632;2022-09-02T11:53:55;100471.72;;;24.08;38.24
34237;BME280;20501;45.956;13.632;2022-09-02T11:56:27;100475.22;;;24.15;37.97
34237;BME280;20501;45.956;13.632;2022-09-02T11:58:55;100475.13;;;24.03;38.25
34237;BME280;20501;45.956;13.632;2022-09-02T12:01:53;100478.06;;;24.08;38.29
34237;BME280;20501;45.956;13.632;2022-09-02T12:09:51;100484.72;;;24.01;37.74
34237;BME280;20501;45.956;13.632;2022-09-02T12:23:08;100481.88;;;23.89;39.20
34237;BME280;20501;45.956;13.632;2022-09-02T12:25:47;100472.25;;;23.98;39.06
34237;BME280;20501;45.956;13.632;2022-09-02T12:33:41;100463.13;;;23.98;38.78
34237;BME280;20501;45.956;13.632;2022-09-02T12:36:43;100475.38;;;23.83;38.93
34237;BME280;20501;45.956;13.632;2022-09-02T12:38:54;100475.09;;;23.73;40.44
34237;BME280;20501;45.956;13.632;2022-09-02T12:41:25;100470.38;;;23.92;39.26
34237;BME280;20501;45.956;13.632;2022-09-02T12:44:15;100468.09;;;24.07;38.64
34237;BME280;20501;45.956;13.632;2022-09-02T12:51:57;100470.13;;;24.00;38.89
34237;BME280;20501;45.956;13.632;2022-09-02T12:54:47;100454.63;;;23.99;38.92
34237;BME280;20501;45.956;13.632;2022-09-02T12:57:15;100452.84;;;24.05;38.48
34237;BME280;20501;45.956;13.632;2022-09-02T12:59:42;100443.50;;;24.06;39.01
34237;BME280;20501;45.956;13.632;2022-09-02T13:02:13;100440.31;;;24.21;38.76
34237;BME280;20501;45.956;13.632;2022-09-02T13:07:22;100439.97;;;24.17;37.44
34237;BME280;20501;45.956;13.632;2022-09-02T13:26:53;100428.78;;;23.93;39.25
34237;BME280;20501;45.956;13.632;2022-09-02T13:32:43;100415.31;;;23.85;39.04
34237;BME280;20501;45.956;13.632;2022-09-02T13:35:17;100424.03;;;24.01;38.44
34237;BME280;20501;45.956;13.632;2022-09-02T13:37:43;100416.81;;;23.69;40.51
34237;BME280;20501;45.956;13.632;2022-09-02T13:40:42;100420.47;;;23.26;42.45
34237;BME280;20501;45.956;13.632;2022-09-02T13:45:37;100408.81;;;23.98;38.28
34237;BME280;20501;45.956;13.632;2022-09-02T13:48:07;100399.78;;;23.54;41.04
34237;BME280;20501;45.956;13.632;2022-09-02T13:50:34;100399.09;;;24.38;37.87
34237;BME280;20501;45.956;13.632;2022-09-02T13:53:04;100410.50;;;24.41;37.82
34237;BME280;20501;45.956;13.632;2022-09-02T13:55:32;100403.44;;;24.46;36.79
34237;BME280;20501;45.956;13.632;2022-09-02T13:58:05;100405.09;;;24.04;39.85
34237;BME280;20501;45.956;13.632;2022-09-02T14:00:39;100405.44;;;23.96;39.90
34237;BME280;20501;45.956;13.632;2022-09-02T14:03:12;100411.69;;;24.03;39.14
34237;BME280;20501;45.956;13.632;2022-09-02T14:05:42;100406.06;;;24.10;39.13
34237;BME280;20501;45.956;13.632;2022-09-02T14:08:15;100392.50;;;23.97;38.75
34237;BME280;20501;45.956;13.632;2022-09-02T14:10:43;100399.00;;;24.02;37.86
34237;BME280;20501;45.956;13.632;2022-09-02T14:13:11;100395.03;;;23.79;40.05
34237;BME280;20501;45.956;13.632;2022-09-02T14:15:38;100394.63;;;23.76;41.21
34237;BME280;20501;45.956;13.632;2022-09-02T14:18:13;100398.66;;;23.92;39.02
34237;BME280;20501;45.956;13.632;2022-09-02T14:21:14;100391.13;;;23.69;41.34
34237;BME280;20501;45.956;13.632;2022-09-02T14:23:49;100394.03;;;24.35;38.96
34237;BME280;20501;45.956;13.632;2022-09-02T14:26:34;100390.47;;;24.46;37.80
34237;BME280;20501;45.956;13.632;2022-09-02T14:29:01;100391.69;;;24.62;37.35
34237;BME280;20501;45.956;13.632;2022-09-02T14:31:27;100378.19;;;24.30;38.25
34237;BME280;20501;45.956;13.632;2022-09-02T14:33:57;100388.97;;;24.74;37.72
34237;BME280;20501;45.956;13.632;2022-09-02T14:38:56;100383.97;;;24.52;36.88
34237;BME280;20501;45.956;13.632;2022-09-02T14:41:33;100383.69;;;24.18;38.13
34237;BME280;20501;45.956;13.632;2022-09-02T14:46:48;100374.19;;;24.14;38.62
34237;BME280;20501;45.956;13.632;2022-09-02T14:49:45;100379.72;;;24.14;39.34
34237;BME280;20501;45.956;13.632;2022-09-02T14:52:20;100371.59;;;24.43;38.61
34237;BME280;20501;45.956;13.632;2022-09-02T14:54:49;100375.09;;;24.38;38.17